Greenfield Center, New York
Current Conditions -  °F | °C
As of 2:53 PM on Wednesday 28 Jan 2015 (Local Time) from KGFL Reporting Station
Clear Clear  
Wind Chill: 12°   Ceiling: Unl
Heat Index: 19°   Visibility: 10mi
Dew Point:   Wind: 5mph
Humidity: 50%   Direction: 110°ESE
Pressure: 30.14"   Gusts: NA
Location:  43.13°N, 73.85°W
Report Text: KGFL 281953Z AUTO 11004KT 10SM CLR M07/M16 A3014 RMK AO2 SLP218 T10721161
Loading
Personal Weather Stations






























Interactive Weather Map New forecast layout! Learn more

10-Day Weather Forecast

Advertisements
Track Severe Weather on mobile